createdAt,value
2023-07-16T00:00:21.206Z,21.51
2023-07-16T00:01:21.204Z,21.50
2023-07-16T00:02:21.219Z,21.49
2023-07-16T00:03:21.175Z,21.49
2023-07-16T00:04:21.206Z,21.48
2023-07-16T00:05:21.159Z,21.46
2023-07-16T00:06:21.130Z,21.45
2023-07-16T00:07:20.444Z,21.46
2023-07-16T00:08:21.124Z,21.44
2023-07-16T00:09:21.108Z,21.44
2023-07-16T00:10:20.429Z,21.43
2023-07-16T00:11:20.418Z,21.43
2023-07-16T00:12:20.439Z,21.44
2023-07-16T00:13:21.067Z,21.44
2023-07-16T00:14:21.086Z,21.44
2023-07-16T00:15:21.041Z,21.43
2023-07-16T00:16:20.359Z,21.43
2023-07-16T00:17:21.020Z,21.41
2023-07-16T00:18:20.333Z,21.41
2023-07-16T00:19:20.325Z,21.40
2023-07-16T00:20:20.321Z,21.39
2023-07-16T00:21:20.296Z,21.37
2023-07-16T00:22:20.304Z,21.37
2023-07-16T00:23:20.977Z,21.37
2023-07-16T00:24:20.938Z,21.37
2023-07-16T00:25:20.938Z,21.38
2023-07-16T00:26:20.950Z,21.38
2023-07-16T00:27:20.238Z,21.38
2023-07-16T00:28:20.255Z,21.38
2023-07-16T00:29:20.235Z,21.38
2023-07-16T00:30:20.211Z,21.39
2023-07-16T00:31:20.984Z,21.40
2023-07-16T00:32:20.239Z,21.39
2023-07-16T00:33:20.835Z,21.39
2023-07-16T00:34:20.183Z,21.37
2023-07-16T00:35:20.829Z,21.39
2023-07-16T00:36:20.830Z,21.37
2023-07-16T00:37:20.808Z,21.37
2023-07-16T00:38:20.137Z,21.38
2023-07-16T00:39:20.099Z,21.36
2023-07-16T00:40:20.787Z,21.34
2023-07-16T00:41:20.770Z,21.34
2023-07-16T00:42:20.759Z,21.34
2023-07-16T00:43:20.082Z,21.32
2023-07-16T00:44:20.048Z,21.30
2023-07-16T00:45:20.031Z,21.28
2023-07-16T00:46:20.774Z,21.27
2023-07-16T00:47:20.029Z,21.25
2023-07-16T00:48:20.032Z,21.25
2023-07-16T00:49:20.680Z,21.24
2023-07-16T00:50:20.672Z,21.24
2023-07-16T00:51:19.986Z,21.24
2023-07-16T00:52:20.624Z,21.25
2023-07-16T00:53:19.963Z,21.24
2023-07-16T00:54:19.937Z,21.25
2023-07-16T00:55:20.616Z,21.24
2023-07-16T00:56:19.926Z,21.25
2023-07-16T00:57:19.954Z,21.26
2023-07-16T00:58:20.625Z,21.26
2023-07-16T00:59:20.573Z,21.27
2023-07-16T01:00:20.558Z,21.28
2023-07-16T01:01:19.895Z,21.27
2023-07-16T01:02:20.522Z,21.28
2023-07-16T01:03:19.846Z,21.29
2023-07-16T01:04:19.864Z,21.30
2023-07-16T01:05:19.813Z,21.31
2023-07-16T01:06:19.834Z,21.32
2023-07-16T01:07:19.817Z,21.32
2023-07-16T01:08:19.785Z,21.34
2023-07-16T01:09:19.789Z,21.34
2023-07-16T01:10:19.776Z,21.35
2023-07-16T01:11:19.822Z,21.36
2023-07-16T01:12:20.427Z,21.36
2023-07-16T01:13:19.735Z,21.37
2023-07-16T01:14:19.733Z,21.37
2023-07-16T01:15:19.736Z,21.37
2023-07-16T01:16:20.438Z,21.37
2023-07-16T01:17:20.376Z,21.37
2023-07-16T01:18:20.369Z,21.37
2023-07-16T01:19:19.677Z,21.37
2023-07-16T01:20:20.338Z,21.36
2023-07-16T01:21:20.318Z,21.36
2023-07-16T01:22:20.447Z,21.37
2023-07-16T01:23:20.314Z,21.36
2023-07-16T01:24:20.301Z,21.37
2023-07-16T01:25:19.610Z,21.37
2023-07-16T01:26:20.279Z,21.37
2023-07-16T01:27:19.590Z,21.37
2023-07-16T01:28:20.265Z,21.37
2023-07-16T01:29:19.560Z,21.36
2023-07-16T01:30:20.224Z,21.36
2023-07-16T01:31:19.551Z,21.36
2023-07-16T01:32:20.218Z,21.34
2023-07-16T01:33:20.210Z,21.34
2023-07-16T01:34:19.642Z,21.32
2023-07-16T01:35:20.165Z,21.31
2023-07-16T01:36:19.479Z,21.29
2023-07-16T01:37:19.465Z,21.26
2023-07-16T01:38:19.460Z,21.22
2023-07-16T01:39:20.160Z,21.19
2023-07-16T01:40:19.480Z,21.16
2023-07-16T01:41:19.426Z,21.14
2023-07-16T01:42:19.421Z,21.12
2023-07-16T01:43:19.410Z,21.10
2023-07-16T01:44:19.429Z,21.09
2023-07-16T01:45:20.084Z,21.07
2023-07-16T01:46:20.228Z,21.07
2023-07-16T01:47:19.418Z,21.06
2023-07-16T01:48:19.370Z,21.06
2023-07-16T01:49:19.366Z,21.06
2023-07-16T01:50:20.026Z,21.06
2023-07-16T01:51:19.320Z,21.06
2023-07-16T01:52:19.442Z,21.07
2023-07-16T01:53:19.348Z,21.08
2023-07-16T01:54:19.353Z,21.08
2023-07-16T01:55:19.265Z,21.08
2023-07-16T01:56:19.267Z,21.09
2023-07-16T01:57:19.269Z,21.09
2023-07-16T01:58:19.276Z,21.09
2023-07-16T01:59:19.282Z,21.10
2023-07-16T02:00:19.297Z,21.09
2023-07-16T02:01:19.318Z,21.09
2023-07-16T02:02:19.904Z,21.08
2023-07-16T02:03:19.968Z,21.08
2023-07-16T02:04:19.209Z,21.08
2023-07-16T02:05:19.153Z,21.08
2023-07-16T02:06:19.360Z,21.08
2023-07-16T02:07:19.147Z,21.09
2023-07-16T02:08:19.154Z,21.10
2023-07-16T02:09:19.158Z,21.10
2023-07-16T02:10:19.179Z,21.12
2023-07-16T02:11:22.176Z,21.13
2023-07-16T02:12:19.115Z,21.14
2023-07-16T02:13:19.082Z,21.15
2023-07-16T02:14:19.092Z,21.15
2023-07-16T02:15:19.097Z,21.16
2023-07-16T02:16:19.551Z,21.16
2023-07-16T02:17:19.068Z,21.17
2023-07-16T02:18:19.018Z,21.16
2023-07-16T02:19:19.040Z,21.16
2023-07-16T02:20:19.022Z,21.15
2023-07-16T02:21:19.054Z,21.15
2023-07-16T02:22:18.957Z,21.13
2023-07-16T02:23:18.983Z,21.12
2023-07-16T02:24:18.954Z,21.11
2023-07-16T02:25:18.953Z,21.10
2023-07-16T02:26:18.961Z,21.10
2023-07-16T02:27:18.971Z,21.08
2023-07-16T02:28:18.906Z,21.06
2023-07-16T02:29:18.898Z,21.05
2023-07-16T02:30:18.902Z,21.02
2023-07-16T02:31:18.926Z,21.00
2023-07-16T02:32:18.898Z,20.98
2023-07-16T02:33:18.906Z,20.97
2023-07-16T02:34:18.858Z,20.97
2023-07-16T02:35:18.868Z,20.95
2023-07-16T02:36:18.966Z,20.92
2023-07-16T02:37:18.806Z,20.89
2023-07-16T02:38:18.843Z,20.86
2023-07-16T02:39:18.827Z,20.83
2023-07-16T02:40:18.802Z,20.78
2023-07-16T02:41:18.779Z,20.74
2023-07-16T02:42:18.767Z,20.70
2023-07-16T02:43:18.763Z,20.66
2023-07-16T02:44:18.760Z,20.61
2023-07-16T02:45:18.729Z,20.57
2023-07-16T02:46:19.010Z,20.52
2023-07-16T02:47:18.772Z,20.48
2023-07-16T02:48:18.707Z,20.42
2023-07-16T02:49:18.715Z,20.38
2023-07-16T02:50:18.671Z,20.34
2023-07-16T02:51:18.652Z,20.28
2023-07-16T02:52:18.652Z,20.24
2023-07-16T02:53:18.654Z,20.21
2023-07-16T02:54:18.640Z,20.17
2023-07-16T02:55:18.613Z,20.13
2023-07-16T02:56:18.751Z,20.10
2023-07-16T02:57:18.586Z,20.06
2023-07-16T02:58:18.622Z,20.02
2023-07-16T02:59:18.590Z,19.99
2023-07-16T03:00:18.724Z,19.95
2023-07-16T03:01:18.557Z,19.91
2023-07-16T03:02:18.556Z,19.88
2023-07-16T03:03:18.816Z,19.87
2023-07-16T03:04:18.514Z,19.85
2023-07-16T03:05:18.727Z,19.83
2023-07-16T03:06:22.189Z,19.82
2023-07-16T03:07:18.741Z,19.80
2023-07-16T03:08:18.539Z,19.79
2023-07-16T03:09:18.456Z,19.78
2023-07-16T03:10:18.538Z,19.77
2023-07-16T03:11:18.448Z,19.76
2023-07-16T03:12:18.472Z,19.76
2023-07-16T03:13:18.465Z,19.74
2023-07-16T03:14:18.414Z,19.73
2023-07-16T03:15:18.408Z,19.71
2023-07-16T03:16:18.609Z,19.70
2023-07-16T03:17:18.486Z,19.69
2023-07-16T03:18:19.109Z,19.68
2023-07-16T03:19:19.068Z,19.67
2023-07-16T03:20:18.369Z,19.66
2023-07-16T03:21:18.418Z,19.65
2023-07-16T03:22:19.034Z,19.63
2023-07-16T03:23:19.036Z,19.62
2023-07-16T03:24:19.053Z,19.61
2023-07-16T03:25:18.324Z,19.60
2023-07-16T03:26:19.090Z,19.59
2023-07-16T03:27:19.779Z,19.58
2023-07-16T03:28:18.983Z,19.56
2023-07-16T03:29:18.988Z,19.55
2023-07-16T03:30:18.943Z,19.53
2023-07-16T03:31:18.348Z,19.52
2023-07-16T03:32:18.941Z,19.51
2023-07-16T03:33:18.960Z,19.51
2023-07-16T03:34:18.915Z,19.50
2023-07-16T03:35:18.886Z,19.49
2023-07-16T03:36:19.010Z,19.49
2023-07-16T03:37:18.242Z,19.48
2023-07-16T03:38:18.884Z,19.49
2023-07-16T03:39:18.856Z,19.49
2023-07-16T03:40:18.860Z,19.50
2023-07-16T03:41:18.879Z,19.51
2023-07-16T03:42:18.827Z,19.52
2023-07-16T03:43:18.205Z,19.54
2023-07-16T03:44:18.796Z,19.56
2023-07-16T03:45:18.839Z,19.58
2023-07-16T03:46:18.493Z,19.59
2023-07-16T03:47:18.827Z,19.61
2023-07-16T03:48:18.923Z,19.63
2023-07-16T03:49:18.747Z,19.64
2023-07-16T03:50:18.778Z,19.65
2023-07-16T03:51:18.732Z,19.65
2023-07-16T03:52:18.733Z,19.66
2023-07-16T03:53:18.682Z,19.68
2023-07-16T03:54:19.011Z,19.68
2023-07-16T03:55:18.694Z,19.69
2023-07-16T03:56:18.888Z,19.70
2023-07-16T03:57:18.675Z,19.72
2023-07-16T03:58:18.650Z,19.73
2023-07-16T03:59:19.458Z,19.76
2023-07-16T04:00:19.415Z,19.78
2023-07-16T04:01:19.925Z,19.81
2023-07-16T04:02:19.483Z,19.83
2023-07-16T04:03:19.511Z,19.85
2023-07-16T04:04:20.366Z,19.87
2023-07-16T04:05:22.168Z,19.89
2023-07-16T04:06:19.881Z,19.91
2023-07-16T04:07:19.844Z,19.96
2023-07-16T04:08:19.842Z,20.01
2023-07-16T04:09:19.305Z,20.07
2023-07-16T04:10:19.812Z,20.13
2023-07-16T04:11:19.805Z,20.18
2023-07-16T04:12:19.805Z,20.21
2023-07-16T04:13:19.796Z,20.25
2023-07-16T04:14:19.770Z,20.30
2023-07-16T04:15:19.748Z,20.34
2023-07-16T04:16:19.570Z,20.39
2023-07-16T04:17:19.255Z,20.46
2023-07-16T04:18:19.222Z,20.54
2023-07-16T04:19:19.710Z,20.64
2023-07-16T04:20:19.707Z,20.74
2023-07-16T04:21:20.227Z,20.87
2023-07-16T04:22:19.718Z,21.03
2023-07-16T04:23:19.177Z,21.20
2023-07-16T04:24:19.178Z,21.42
2023-07-16T04:25:20.143Z,21.63
2023-07-16T04:26:19.727Z,21.86
2023-07-16T04:27:19.630Z,22.11
2023-07-16T04:28:19.613Z,22.39
2023-07-16T04:29:18.605Z,22.69
2023-07-16T04:30:19.111Z,22.99
2023-07-16T04:31:19.640Z,23.28
2023-07-16T04:32:19.622Z,23.55
2023-07-16T04:33:19.555Z,23.82
2023-07-16T04:34:20.043Z,24.10
2023-07-16T04:35:20.032Z,24.35
2023-07-16T04:36:19.555Z,24.56
2023-07-16T04:37:20.026Z,24.79
2023-07-16T04:38:20.008Z,25.03
2023-07-16T04:39:19.510Z,25.28
2023-07-16T04:40:19.010Z,25.55
2023-07-16T04:41:19.967Z,25.86
2023-07-16T04:42:19.953Z,26.17
2023-07-16T04:43:19.960Z,26.45
2023-07-16T04:44:19.945Z,26.72
2023-07-16T04:45:19.453Z,26.80
2023-07-16T04:46:19.749Z,26.61
2023-07-16T04:47:19.479Z,26.87
2023-07-16T04:48:19.902Z,26.56
2023-07-16T04:49:19.913Z,26.20
2023-07-16T04:50:19.889Z,25.87
2023-07-16T04:51:19.371Z,25.58
2023-07-16T04:52:19.355Z,25.32
2023-07-16T04:53:19.830Z,25.43
2023-07-16T04:54:19.850Z,25.89
2023-07-16T04:55:19.312Z,26.31
2023-07-16T04:56:19.950Z,26.67
2023-07-16T04:57:20.912Z,26.98
2023-07-16T04:58:19.770Z,27.35
2023-07-16T04:59:19.294Z,27.72
2023-07-16T05:00:19.274Z,28.12
2023-07-16T05:01:19.286Z,28.46
2023-07-16T05:02:19.239Z,28.77
2023-07-16T05:03:19.243Z,29.05
2023-07-16T05:04:19.306Z,29.35
2023-07-16T05:05:19.707Z,29.61
2023-07-16T05:06:19.282Z,29.84
2023-07-16T05:07:19.686Z,30.08
2023-07-16T05:08:19.697Z,30.32
2023-07-16T05:09:19.666Z,30.53
2023-07-16T05:10:19.664Z,30.76
2023-07-16T05:11:19.678Z,31.00
2023-07-16T05:12:19.623Z,31.26
2023-07-16T05:13:19.647Z,31.53
2023-07-16T05:14:19.610Z,31.70
2023-07-16T05:15:19.647Z,31.92
2023-07-16T05:16:20.075Z,32.13
2023-07-16T05:17:19.711Z,32.33
2023-07-16T05:18:19.618Z,32.55
2023-07-16T05:19:19.560Z,32.80
2023-07-16T05:20:19.553Z,33.00
2023-07-16T05:21:19.534Z,33.21
2023-07-16T05:22:19.542Z,33.38
2023-07-16T05:23:19.510Z,33.55
2023-07-16T05:24:19.515Z,33.67
2023-07-16T05:25:19.503Z,33.78
2023-07-16T05:26:19.500Z,33.92
2023-07-16T05:27:19.494Z,34.03
2023-07-16T05:28:19.466Z,34.09
2023-07-16T05:29:19.456Z,34.16
2023-07-16T05:30:19.447Z,34.25
2023-07-16T05:31:19.482Z,34.33
2023-07-16T05:32:19.448Z,34.40
2023-07-16T05:33:19.405Z,34.51
2023-07-16T05:34:19.407Z,34.64
2023-07-16T05:35:19.376Z,34.76
2023-07-16T05:36:19.432Z,34.89
2023-07-16T05:37:19.378Z,35.03
2023-07-16T05:38:19.373Z,35.14
2023-07-16T05:39:19.347Z,35.27
2023-07-16T05:40:19.343Z,35.40
2023-07-16T05:41:20.059Z,35.54
2023-07-16T05:42:19.310Z,35.70
2023-07-16T05:43:19.314Z,35.88
2023-07-16T05:44:19.298Z,36.07
2023-07-16T05:45:19.303Z,36.25
2023-07-16T05:46:19.807Z,36.38
2023-07-16T05:47:19.261Z,36.49
2023-07-16T05:48:19.324Z,36.59
2023-07-16T05:49:19.249Z,36.71
2023-07-16T05:50:19.259Z,36.82
2023-07-16T05:51:19.227Z,36.92
2023-07-16T05:52:19.226Z,36.98
2023-07-16T05:53:19.197Z,37.09
2023-07-16T05:54:19.203Z,37.18
2023-07-16T05:55:19.238Z,37.31
2023-07-16T05:56:19.263Z,37.43
2023-07-16T05:57:19.171Z,37.41
2023-07-16T05:58:19.138Z,37.39
2023-07-16T05:59:19.168Z,37.40
2023-07-16T06:00:19.133Z,37.44
2023-07-16T06:01:19.125Z,37.54
2023-07-16T06:02:19.091Z,37.66
2023-07-16T06:03:19.177Z,37.76
2023-07-16T06:04:19.150Z,37.90
2023-07-16T06:05:19.070Z,38.02
2023-07-16T06:06:19.143Z,38.08
2023-07-16T06:07:19.051Z,38.16
2023-07-16T06:08:19.056Z,38.30
2023-07-16T06:09:19.017Z,38.39
2023-07-16T06:10:19.020Z,38.45
2023-07-16T06:11:19.007Z,38.55
2023-07-16T06:12:18.985Z,38.66
2023-07-16T06:13:19.020Z,38.74
2023-07-16T06:14:18.974Z,38.78
2023-07-16T06:15:18.950Z,38.80
2023-07-16T06:16:19.222Z,38.83
2023-07-16T06:17:18.955Z,38.84
2023-07-16T06:18:21.113Z,38.91
2023-07-16T06:19:18.898Z,39.01
2023-07-16T06:20:18.909Z,39.14
2023-07-16T06:21:18.889Z,39.31
2023-07-16T06:22:18.903Z,39.47
2023-07-16T06:23:17.382Z,39.59
2023-07-16T06:24:18.858Z,39.68
2023-07-16T06:25:17.350Z,39.79
2023-07-16T06:26:19.082Z,39.91
2023-07-16T06:27:17.353Z,40.06
2023-07-16T06:28:18.853Z,40.22
2023-07-16T06:29:18.822Z,40.34
2023-07-16T06:30:17.299Z,40.42
2023-07-16T06:31:18.871Z,40.55
2023-07-16T06:32:18.810Z,40.70
2023-07-16T06:33:18.766Z,40.80
2023-07-16T06:34:17.272Z,40.81
2023-07-16T06:35:17.274Z,40.84
2023-07-16T06:36:19.081Z,40.90
2023-07-16T06:37:17.227Z,40.90
2023-07-16T06:38:17.228Z,40.92
2023-07-16T06:39:17.219Z,41.00
2023-07-16T06:40:17.208Z,41.10
2023-07-16T06:41:17.196Z,41.28
2023-07-16T06:42:17.187Z,41.50
2023-07-16T06:43:17.197Z,41.71
2023-07-16T06:44:18.649Z,41.85
2023-07-16T06:45:18.661Z,41.91
2023-07-16T06:46:17.458Z,42.01
2023-07-16T06:47:18.700Z,42.17
2023-07-16T06:48:18.604Z,42.36
2023-07-16T06:49:17.122Z,42.55
2023-07-16T06:50:18.614Z,42.72
2023-07-16T06:51:17.459Z,42.88
2023-07-16T06:52:17.080Z,43.00
2023-07-16T06:53:16.130Z,43.04
2023-07-16T06:54:16.108Z,43.10
2023-07-16T06:55:16.145Z,43.19
2023-07-16T06:56:18.555Z,43.25
2023-07-16T06:57:18.513Z,43.31
2023-07-16T06:58:17.025Z,43.42
2023-07-16T06:59:17.044Z,43.52
2023-07-16T07:00:18.498Z,43.63
2023-07-16T07:01:18.530Z,43.78
2023-07-16T07:02:16.960Z,43.90
2023-07-16T07:03:18.546Z,44.05
2023-07-16T07:04:18.535Z,44.10
2023-07-16T07:05:16.940Z,44.13
2023-07-16T07:06:16.935Z,44.16
2023-07-16T07:07:15.964Z,44.22
2023-07-16T07:08:16.910Z,44.25
2023-07-16T07:09:15.974Z,44.31
2023-07-16T07:10:18.390Z,44.34
2023-07-16T07:11:18.367Z,44.02
2023-07-16T07:12:16.860Z,44.12
2023-07-16T07:13:18.386Z,44.17
2023-07-16T07:14:18.358Z,44.23
2023-07-16T07:15:16.826Z,44.31
2023-07-16T07:16:18.552Z,43.05
2023-07-16T07:17:16.887Z,43.33
2023-07-16T07:18:16.883Z,43.75
2023-07-16T07:19:16.801Z,42.39
2023-07-16T07:20:18.286Z,43.10
2023-07-16T07:21:18.256Z,42.88
2023-07-16T07:22:16.822Z,43.49
2023-07-16T07:23:16.817Z,43.94
2023-07-16T07:24:18.235Z,44.25
2023-07-16T07:25:16.738Z,44.41
2023-07-16T07:26:18.469Z,44.57
2023-07-16T07:27:18.242Z,44.67
2023-07-16T07:28:16.724Z,44.77
2023-07-16T07:29:16.697Z,44.85
2023-07-16T07:30:16.691Z,44.96
2023-07-16T07:31:16.742Z,45.12
2023-07-16T07:32:15.746Z,45.34
2023-07-16T07:33:16.661Z,45.51
2023-07-16T07:34:16.700Z,45.61
2023-07-16T07:35:16.652Z,45.72
2023-07-16T07:36:16.908Z,45.78
2023-07-16T07:37:16.641Z,45.91
2023-07-16T07:38:18.097Z,46.00
2023-07-16T07:39:16.323Z,46.11
2023-07-16T07:40:16.312Z,46.25
2023-07-16T07:41:16.297Z,46.39
2023-07-16T07:42:15.633Z,46.54
2023-07-16T07:43:15.609Z,46.72
2023-07-16T07:44:16.272Z,46.80
2023-07-16T07:45:15.579Z,46.93
2023-07-16T07:46:16.023Z,46.40
2023-07-16T07:47:15.666Z,46.86
2023-07-16T07:48:15.549Z,46.68
2023-07-16T07:49:15.536Z,46.21
2023-07-16T07:50:16.206Z,45.46
2023-07-16T07:51:15.529Z,44.04
2023-07-16T07:52:16.190Z,43.79
2023-07-16T07:53:15.500Z,43.84
2023-07-16T07:54:15.487Z,44.79
2023-07-16T07:55:16.143Z,45.30
2023-07-16T07:56:16.370Z,45.17
2023-07-16T07:57:18.278Z,45.80
2023-07-16T07:58:16.191Z,45.99
2023-07-16T07:59:16.222Z,46.35
2023-07-16T08:00:15.537Z,45.86
2023-07-16T08:01:15.791Z,46.17
2023-07-16T08:02:15.429Z,46.01
2023-07-16T08:03:16.204Z,45.08
2023-07-16T08:04:15.798Z,45.50
2023-07-16T08:05:15.503Z,45.64
2023-07-16T08:06:16.368Z,45.72
2023-07-16T08:07:15.397Z,45.74
2023-07-16T08:08:16.080Z,44.80
2023-07-16T08:09:15.591Z,45.09
2023-07-16T08:10:15.510Z,43.60
2023-07-16T08:11:16.041Z,42.02
2023-07-16T08:12:16.045Z,41.95
2023-07-16T08:13:15.333Z,42.25
2023-07-16T08:14:15.968Z,39.82
2023-07-16T08:15:16.316Z,40.41
2023-07-16T08:16:16.484Z,39.92
2023-07-16T08:17:16.667Z,38.43
2023-07-16T08:18:18.630Z,39.84
2023-07-16T08:19:15.571Z,39.30
2023-07-16T08:20:15.907Z,38.56
2023-07-16T08:21:15.899Z,38.49
2023-07-16T08:22:15.228Z,39.64
2023-07-16T08:23:15.959Z,38.17
2023-07-16T08:24:15.184Z,38.00
2023-07-16T08:25:16.138Z,37.56
2023-07-16T08:26:15.348Z,37.46
2023-07-16T08:27:15.848Z,38.55
2023-07-16T08:28:15.173Z,38.06
2023-07-16T08:29:15.821Z,37.42
2023-07-16T08:30:15.798Z,36.47
2023-07-16T08:31:15.827Z,36.13
2023-07-16T08:32:15.108Z,37.08
2023-07-16T08:33:15.103Z,35.93
2023-07-16T08:34:15.774Z,34.86
2023-07-16T08:35:16.019Z,34.15
2023-07-16T08:36:15.979Z,33.30
2023-07-16T08:37:15.105Z,32.81
2023-07-16T08:38:15.033Z,33.90
2023-07-16T08:39:16.258Z,33.24
2023-07-16T08:40:15.724Z,33.81
2023-07-16T08:41:15.684Z,34.60
2023-07-16T08:42:15.007Z,34.79
2023-07-16T08:43:15.000Z,34.20
2023-07-16T08:44:15.649Z,34.78
2023-07-16T08:45:14.956Z,35.10
2023-07-16T08:46:15.343Z,34.60
2023-07-16T08:47:14.944Z,34.60
2023-07-16T08:48:14.954Z,34.15
2023-07-16T08:49:14.962Z,33.77
2023-07-16T08:50:14.907Z,34.37
2023-07-16T08:51:15.602Z,34.26
2023-07-16T08:52:14.935Z,33.81
2023-07-16T08:53:15.603Z,34.14
2023-07-16T08:54:14.853Z,34.35
2023-07-16T08:55:14.870Z,35.25
2023-07-16T08:56:15.177Z,35.91
2023-07-16T08:57:15.553Z,36.28
2023-07-16T08:58:14.889Z,35.86
2023-07-16T08:59:15.488Z,35.78
2023-07-16T09:00:14.926Z,35.51
2023-07-16T09:01:15.464Z,36.06
2023-07-16T09:02:16.725Z,36.33
2023-07-16T09:03:15.470Z,36.03
2023-07-16T09:04:15.450Z,35.87
2023-07-16T09:05:28.148Z,35.94
2023-07-16T09:06:16.027Z,36.18
2023-07-16T09:07:14.727Z,36.26
2023-07-16T09:08:14.720Z,36.29
2023-07-16T09:09:14.732Z,36.27
2023-07-16T09:10:14.703Z,36.51
2023-07-16T09:11:14.665Z,36.31
2023-07-16T09:12:14.711Z,36.35
2023-07-16T09:13:15.341Z,36.39
2023-07-16T09:14:15.315Z,36.15
2023-07-16T09:15:14.642Z,36.19
2023-07-16T09:16:14.913Z,36.40
2023-07-16T09:17:15.351Z,36.63
2023-07-16T09:18:14.653Z,36.92
2023-07-16T09:19:15.265Z,37.22
2023-07-16T09:20:14.607Z,37.48
2023-07-16T09:21:14.550Z,37.66
2023-07-16T09:22:14.565Z,37.60
2023-07-16T09:23:14.595Z,37.66
2023-07-16T09:24:14.549Z,37.87
2023-07-16T09:25:14.518Z,38.03
2023-07-16T09:26:14.620Z,38.27
2023-07-16T09:27:15.238Z,38.41
2023-07-16T09:28:15.174Z,38.57
2023-07-16T09:29:15.174Z,38.62
2023-07-16T09:30:15.180Z,38.72
2023-07-16T09:31:14.450Z,38.73
2023-07-16T09:32:14.495Z,38.47
2023-07-16T09:33:14.532Z,38.25
2023-07-16T09:34:14.430Z,37.79
2023-07-16T09:35:15.104Z,37.45
2023-07-16T09:36:15.715Z,36.86
2023-07-16T09:37:14.404Z,36.21
2023-07-16T09:38:14.398Z,35.54
2023-07-16T09:39:15.100Z,35.02
2023-07-16T09:40:14.367Z,34.88
2023-07-16T09:41:14.364Z,34.64
2023-07-16T09:42:14.372Z,34.94
2023-07-16T09:43:14.389Z,35.09
2023-07-16T09:44:14.339Z,35.45
2023-07-16T09:45:15.004Z,35.79
2023-07-16T09:46:15.247Z,36.23
2023-07-16T09:47:14.963Z,36.22
2023-07-16T09:48:14.511Z,36.31
2023-07-16T09:49:14.272Z,35.82
2023-07-16T09:50:14.952Z,35.29
2023-07-16T09:51:14.260Z,34.80
2023-07-16T09:52:14.284Z,34.42
2023-07-16T09:53:14.274Z,34.48
2023-07-16T09:54:14.194Z,34.18
2023-07-16T09:55:14.190Z,34.15
2023-07-16T09:56:14.451Z,34.60
2023-07-16T09:57:15.061Z,34.82
2023-07-16T09:58:15.040Z,34.70
2023-07-16T09:59:14.857Z,34.47
2023-07-16T10:00:15.080Z,34.28
2023-07-16T10:01:14.859Z,33.98
2023-07-16T10:02:14.193Z,33.98
2023-07-16T10:03:14.862Z,33.97
2023-07-16T10:04:15.980Z,33.91
2023-07-16T10:05:15.005Z,33.91
2023-07-16T10:06:14.219Z,33.70
2023-07-16T10:07:14.074Z,33.44
2023-07-16T10:08:14.055Z,33.10
2023-07-16T10:09:14.054Z,32.79
2023-07-16T10:10:14.036Z,32.70
2023-07-16T10:11:14.732Z,32.73
2023-07-16T10:12:14.103Z,32.73
2023-07-16T10:13:13.991Z,32.64
2023-07-16T10:14:13.994Z,32.53
2023-07-16T10:15:14.774Z,32.54
2023-07-16T10:16:14.144Z,32.81
2023-07-16T10:17:13.949Z,32.69
2023-07-16T10:18:14.004Z,32.51
2023-07-16T10:19:13.940Z,32.27
2023-07-16T10:20:13.923Z,32.01
2023-07-16T10:21:13.941Z,31.75
2023-07-16T10:22:14.045Z,31.49
2023-07-16T10:23:14.182Z,31.52
2023-07-16T10:24:13.891Z,31.24
2023-07-16T10:25:13.866Z,31.12
2023-07-16T10:26:18.473Z,31.49
2023-07-16T10:27:15.568Z,31.95
2023-07-16T10:28:13.873Z,32.61
2023-07-16T10:29:13.886Z,32.53
2023-07-16T10:30:13.829Z,33.38
2023-07-16T10:31:13.807Z,34.85
2023-07-16T10:32:15.475Z,34.67
2023-07-16T10:33:14.034Z,35.30
2023-07-16T10:34:13.814Z,37.08
2023-07-16T10:35:13.827Z,36.29
2023-07-16T10:36:13.914Z,35.63
2023-07-16T10:37:13.843Z,35.05
2023-07-16T10:38:15.782Z,34.88
2023-07-16T10:39:13.855Z,35.60
2023-07-16T10:40:14.440Z,37.70
2023-07-16T10:41:13.874Z,38.41
2023-07-16T10:42:13.877Z,37.74
2023-07-16T10:43:13.734Z,37.17
2023-07-16T10:44:13.786Z,36.37
2023-07-16T10:45:14.383Z,35.67
2023-07-16T10:46:14.543Z,35.37
2023-07-16T10:47:13.810Z,34.86
2023-07-16T10:48:13.816Z,34.47
2023-07-16T10:49:13.622Z,34.10
2023-07-16T10:50:15.586Z,33.81
2023-07-16T10:51:13.589Z,34.04
2023-07-16T10:52:13.844Z,33.56
2023-07-16T10:53:14.294Z,33.15
2023-07-16T10:54:13.598Z,32.82
2023-07-16T10:55:13.562Z,32.86
2023-07-16T10:56:13.585Z,32.66
2023-07-16T10:57:13.570Z,32.40
2023-07-16T10:58:13.583Z,32.13
2023-07-16T10:59:13.544Z,31.90
2023-07-16T11:00:13.552Z,31.80
2023-07-16T11:01:13.566Z,31.73
2023-07-16T11:02:14.860Z,31.54
2023-07-16T11:03:14.250Z,31.41
2023-07-16T11:04:13.482Z,31.23
2023-07-16T11:05:13.485Z,31.03
2023-07-16T11:06:14.238Z,30.77
2023-07-16T11:07:14.167Z,30.48
2023-07-16T11:08:14.134Z,30.24
2023-07-16T11:09:14.117Z,30.11
2023-07-16T11:10:14.088Z,30.11
2023-07-16T11:11:14.096Z,30.11
2023-07-16T11:12:14.102Z,30.10
2023-07-16T11:13:14.077Z,30.11
2023-07-16T11:14:14.097Z,30.14
2023-07-16T11:15:14.073Z,30.14
2023-07-16T11:16:14.242Z,30.19
2023-07-16T11:17:14.035Z,30.19
2023-07-16T11:18:14.029Z,30.19
2023-07-16T11:19:13.992Z,30.21
2023-07-16T11:20:13.994Z,30.13
2023-07-16T11:21:14.006Z,30.04
2023-07-16T11:22:13.969Z,29.96
2023-07-16T11:23:13.997Z,29.97
2023-07-16T11:24:13.938Z,30.09
2023-07-16T11:25:13.946Z,30.20
2023-07-16T11:26:14.175Z,30.34
2023-07-16T11:27:13.926Z,30.43
2023-07-16T11:28:13.950Z,30.55
2023-07-16T11:29:13.902Z,30.64
2023-07-16T11:30:13.895Z,30.71
2023-07-16T11:31:13.944Z,30.71
2023-07-16T11:32:13.906Z,30.70
2023-07-16T11:33:13.921Z,30.76
2023-07-16T11:34:13.846Z,30.81
2023-07-16T11:35:13.840Z,30.90
2023-07-16T11:36:14.132Z,31.03
2023-07-16T11:37:13.824Z,31.05
2023-07-16T11:38:13.810Z,31.11
2023-07-16T11:39:13.812Z,31.11
2023-07-16T11:40:13.789Z,31.18
2023-07-16T11:41:13.776Z,31.15
2023-07-16T11:42:13.764Z,31.08
2023-07-16T11:43:13.736Z,31.01
2023-07-16T11:44:13.762Z,30.96
2023-07-16T11:45:13.753Z,30.96
2023-07-16T11:46:13.841Z,30.95
2023-07-16T11:47:13.850Z,30.87
2023-07-16T11:48:13.723Z,30.72
2023-07-16T11:49:13.696Z,30.57
2023-07-16T11:50:13.685Z,30.45
2023-07-16T11:51:13.767Z,30.40
2023-07-16T11:52:13.640Z,30.43
2023-07-16T11:53:13.651Z,30.47
2023-07-16T11:54:13.643Z,30.51
2023-07-16T11:55:13.651Z,30.62
2023-07-16T11:56:13.637Z,30.76
2023-07-16T11:57:13.587Z,30.91
2023-07-16T11:58:13.630Z,31.05
2023-07-16T11:59:14.480Z,31.16
2023-07-16T12:00:13.575Z,31.26
2023-07-16T12:01:13.586Z,31.35
2023-07-16T12:02:13.540Z,31.35
2023-07-16T12:03:13.683Z,31.44
2023-07-16T12:04:13.561Z,31.56
2023-07-16T12:05:14.921Z,31.70
2023-07-16T12:06:13.492Z,31.83
2023-07-16T12:07:13.502Z,31.84
2023-07-16T12:08:13.497Z,31.88
2023-07-16T12:09:13.481Z,31.99
2023-07-16T12:10:13.453Z,32.05
2023-07-16T12:11:13.451Z,32.11
2023-07-16T12:12:13.455Z,32.14
2023-07-16T12:13:13.437Z,32.10
2023-07-16T12:14:13.428Z,32.02
2023-07-16T12:15:13.409Z,31.90
2023-07-16T12:16:13.410Z,31.77
2023-07-16T12:17:13.503Z,31.77
2023-07-16T12:18:13.442Z,31.84
2023-07-16T12:19:13.372Z,31.84
2023-07-16T12:20:13.392Z,31.82
2023-07-16T12:21:13.356Z,31.81
2023-07-16T12:22:13.349Z,31.82
2023-07-16T12:23:13.382Z,31.80
2023-07-16T12:24:13.307Z,31.81
2023-07-16T12:25:13.310Z,31.86
2023-07-16T12:26:13.344Z,31.88
2023-07-16T12:27:13.328Z,31.86
2023-07-16T12:28:13.351Z,31.84
2023-07-16T12:29:13.330Z,31.91
2023-07-16T12:30:13.260Z,31.99
2023-07-16T12:31:13.290Z,32.03
2023-07-16T12:32:13.273Z,32.02
2023-07-16T12:33:13.238Z,31.97
2023-07-16T12:34:13.196Z,31.96
2023-07-16T12:35:13.231Z,31.98
2023-07-16T12:36:13.198Z,32.01
2023-07-16T12:37:13.187Z,32.09
2023-07-16T12:38:13.153Z,32.16
2023-07-16T12:39:13.145Z,32.18
2023-07-16T12:40:13.147Z,32.20
2023-07-16T12:41:13.138Z,32.18
2023-07-16T12:42:13.134Z,32.12
2023-07-16T12:43:13.098Z,32.05
2023-07-16T12:44:13.113Z,32.00
2023-07-16T12:45:13.099Z,31.96
2023-07-16T12:46:13.149Z,31.93
2023-07-16T12:47:13.105Z,31.92
2023-07-16T12:48:13.103Z,31.90
2023-07-16T12:49:13.048Z,31.96
2023-07-16T12:50:13.037Z,31.94
2023-07-16T12:51:13.023Z,31.75
2023-07-16T12:52:13.004Z,31.57